createdAt,value
2022-10-14T00:01:31.167Z,11.55
2022-10-14T00:04:04.242Z,11.54
2022-10-14T00:06:36.509Z,11.53
2022-10-14T00:09:10.290Z,11.51
2022-10-14T00:11:42.890Z,11.49
2022-10-14T00:14:18.340Z,11.48
2022-10-14T00:16:54.292Z,11.44
2022-10-14T00:19:26.072Z,11.43
2022-10-14T00:21:58.923Z,11.43
2022-10-14T00:24:30.898Z,11.40
2022-10-14T00:27:02.758Z,11.38
2022-10-14T00:29:34.726Z,11.33
2022-10-14T00:32:06.488Z,11.30
2022-10-14T00:34:40.013Z,11.24
2022-10-14T00:37:12.338Z,11.21
2022-10-14T00:39:44.049Z,11.18
2022-10-14T00:42:16.093Z,11.16
2022-10-14T00:44:53.788Z,11.14
2022-10-14T00:47:26.416Z,11.16
2022-10-14T00:50:00.208Z,11.18
2022-10-14T00:52:33.548Z,11.18
2022-10-14T00:55:11.690Z,11.18
2022-10-14T00:57:44.297Z,11.16
2022-10-14T01:00:18.704Z,11.18
2022-10-14T01:02:51.534Z,11.21
2022-10-14T01:05:25.581Z,11.21
2022-10-14T01:08:00.809Z,11.23
2022-10-14T01:10:44.872Z,11.24
2022-10-14T01:13:28.187Z,11.22
2022-10-14T01:16:04.681Z,11.15
2022-10-14T01:18:46.278Z,11.08
2022-10-14T01:21:28.893Z,11.02
2022-10-14T01:24:23.287Z,10.98
2022-10-14T01:27:04.295Z,10.94
2022-10-14T01:30:02.289Z,10.87
2022-10-14T01:33:01.581Z,10.78
2022-10-14T01:35:59.401Z,10.74
2022-10-14T01:38:37.363Z,10.69
2022-10-14T01:41:36.575Z,10.67
2022-10-14T01:44:11.067Z,10.65
2022-10-14T01:46:44.732Z,10.60
2022-10-14T01:49:22.897Z,10.57
2022-10-14T01:51:58.649Z,10.55
2022-10-14T01:54:36.626Z,10.52
2022-10-14T01:57:13.733Z,10.49
2022-10-14T01:59:48.935Z,10.45
2022-10-14T02:02:21.739Z,10.43
2022-10-14T02:04:53.893Z,10.43
2022-10-14T02:07:29.157Z,10.44
2022-10-14T02:10:16.075Z,10.46
2022-10-14T02:13:17.367Z,10.51
2022-10-14T02:16:07.699Z,10.55
2022-10-14T02:18:52.479Z,10.59
2022-10-14T02:21:42.831Z,10.64
2022-10-14T02:24:28.253Z,10.67
2022-10-14T02:27:01.440Z,10.65
2022-10-14T02:29:34.519Z,10.67
2022-10-14T02:32:07.075Z,10.70
2022-10-14T02:34:38.734Z,10.74
2022-10-14T02:37:12.338Z,10.75
2022-10-14T02:39:46.964Z,10.78
2022-10-14T02:42:19.530Z,10.79
2022-10-14T02:45:00.628Z,10.79
2022-10-14T02:47:32.884Z,10.78
2022-10-14T02:50:05.071Z,10.79
2022-10-14T02:52:37.322Z,10.78
2022-10-14T02:55:09.972Z,10.75
2022-10-14T02:57:43.030Z,10.73
2022-10-14T03:00:35.836Z,10.73
2022-10-14T03:03:08.928Z,10.71
2022-10-14T03:05:42.374Z,10.66
2022-10-14T03:08:16.387Z,10.65
2022-10-14T03:10:48.949Z,10.64
2022-10-14T03:13:20.687Z,10.64
2022-10-14T03:15:54.081Z,10.62
2022-10-14T03:18:26.113Z,10.62
2022-10-14T03:21:00.724Z,10.61
2022-10-14T03:23:34.588Z,10.59
2022-10-14T03:26:11.782Z,10.56
2022-10-14T03:28:42.935Z,10.53
2022-10-14T03:31:16.354Z,10.52
2022-10-14T03:33:49.910Z,10.50
2022-10-14T03:36:22.860Z,10.48
2022-10-14T03:38:56.228Z,10.42
2022-10-14T03:41:29.581Z,10.38
2022-10-14T03:44:01.320Z,10.35
2022-10-14T03:46:34.837Z,10.36
2022-10-14T03:49:06.900Z,10.35
2022-10-14T03:51:40.569Z,10.32
2022-10-14T03:54:20.558Z,10.33
2022-10-14T03:56:52.622Z,10.35
2022-10-14T03:59:25.679Z,10.38
2022-10-14T04:01:58.706Z,10.39
2022-10-14T04:04:30.463Z,10.37
2022-10-14T04:07:04.620Z,10.35
2022-10-14T04:09:37.948Z,10.36
2022-10-14T04:12:12.259Z,10.38
2022-10-14T04:14:47.256Z,10.37
2022-10-14T04:17:19.749Z,10.35
2022-10-14T04:19:52.206Z,10.32
2022-10-14T04:22:24.593Z,10.32
2022-10-14T04:24:58.498Z,10.32
2022-10-14T04:27:30.791Z,10.30
2022-10-14T04:30:04.967Z,10.32
2022-10-14T04:32:40.047Z,10.35
2022-10-14T04:35:12.349Z,10.35
2022-10-14T04:37:45.833Z,10.33
2022-10-14T04:40:20.609Z,10.33
2022-10-14T04:42:57.643Z,10.32
2022-10-14T04:45:33.255Z,10.32
2022-10-14T04:48:18.438Z,10.29
2022-10-14T04:50:52.236Z,10.30
2022-10-14T04:53:41.202Z,10.30
2022-10-14T04:56:19.740Z,10.31
2022-10-14T04:58:59.425Z,10.32
2022-10-14T05:01:34.233Z,10.31
2022-10-14T05:04:06.531Z,10.30
2022-10-14T05:06:41.024Z,10.29
2022-10-14T05:09:16.777Z,10.30
2022-10-14T05:11:48.918Z,10.32
2022-10-14T05:14:23.849Z,10.32
2022-10-14T05:17:09.564Z,10.30
2022-10-14T05:19:41.565Z,10.33
2022-10-14T05:22:14.064Z,10.35
2022-10-14T05:24:48.200Z,10.35
2022-10-14T05:27:21.348Z,10.32
2022-10-14T05:29:53.862Z,10.32
2022-10-14T05:32:26.054Z,10.34
2022-10-14T05:34:59.516Z,10.36
2022-10-14T05:37:33.342Z,10.40
2022-10-14T05:40:06.787Z,10.42
2022-10-14T05:42:40.159Z,10.46
2022-10-14T05:45:12.449Z,10.49
2022-10-14T05:47:45.781Z,10.49
2022-10-14T05:50:19.480Z,10.50
2022-10-14T05:52:55.777Z,10.50
2022-10-14T05:55:31.927Z,10.52
2022-10-14T05:58:10.311Z,10.54
2022-10-14T06:00:45.066Z,10.55
2022-10-14T06:03:18.342Z,10.57
2022-10-14T06:05:50.413Z,10.60
2022-10-14T06:08:23.280Z,10.64
2022-10-14T06:10:55.731Z,10.69
2022-10-14T06:13:27.880Z,10.72
2022-10-14T06:16:08.303Z,10.79
2022-10-14T06:18:41.756Z,10.84
2022-10-14T06:21:14.687Z,10.90
2022-10-14T06:23:47.457Z,10.95
2022-10-14T06:26:19.123Z,10.99
2022-10-14T06:28:51.090Z,11.01
2022-10-14T06:31:29.941Z,11.05
2022-10-14T06:33:59.540Z,11.11
2022-10-14T06:36:35.415Z,11.16
2022-10-14T06:39:07.307Z,11.21
2022-10-14T06:41:40.122Z,11.24
2022-10-14T06:44:15.577Z,11.27
2022-10-14T06:46:48.080Z,11.28
2022-10-14T06:49:22.625Z,11.31
2022-10-14T06:51:58.886Z,11.37
2022-10-14T06:54:34.463Z,11.45
2022-10-14T06:57:06.066Z,11.51
2022-10-14T06:59:42.784Z,11.59
2022-10-14T07:02:15.220Z,11.65
2022-10-14T07:04:50.934Z,11.74
2022-10-14T07:07:22.693Z,11.82
2022-10-14T07:09:54.870Z,11.91
2022-10-14T07:12:27.302Z,12.04
2022-10-14T07:14:59.704Z,12.16
2022-10-14T07:17:35.357Z,12.26
2022-10-14T07:20:09.551Z,12.38
2022-10-14T07:22:43.052Z,12.49
2022-10-14T07:25:16.714Z,12.61
2022-10-14T07:27:49.093Z,12.72
2022-10-14T07:30:23.170Z,12.81
2022-10-14T07:32:57.339Z,12.88
2022-10-14T07:35:32.385Z,12.93
2022-10-14T07:38:07.105Z,12.99
2022-10-14T07:40:38.977Z,13.06
2022-10-14T07:43:14.579Z,13.14
2022-10-14T07:45:48.417Z,13.19
2022-10-14T07:48:27.371Z,13.22
2022-10-14T07:50:54.801Z,13.29
2022-10-14T07:53:27.576Z,13.38
2022-10-14T07:56:00.045Z,13.45
2022-10-14T07:58:32.615Z,13.48
2022-10-14T08:01:04.601Z,13.46
2022-10-14T08:03:36.734Z,13.48
2022-10-14T08:06:09.186Z,13.53
2022-10-14T08:08:41.401Z,13.56
2022-10-14T08:11:15.603Z,13.61
2022-10-14T08:13:48.193Z,13.60
2022-10-14T08:16:25.142Z,13.57
2022-10-14T08:18:59.829Z,13.60
2022-10-14T08:21:32.193Z,13.66
2022-10-14T08:24:05.649Z,13.71
2022-10-14T08:26:38.700Z,13.76
2022-10-14T08:29:13.631Z,13.81
2022-10-14T08:31:46.518Z,13.88
2022-10-14T08:34:19.980Z,13.94
2022-10-14T08:36:52.779Z,13.99
2022-10-14T08:39:25.633Z,14.07
2022-10-14T08:42:24.883Z,14.12
2022-10-14T08:45:00.797Z,14.19
2022-10-14T08:47:54.397Z,14.32
2022-10-14T08:50:39.303Z,14.42
2022-10-14T08:53:16.960Z,14.57
2022-10-14T08:55:51.476Z,14.72
2022-10-14T08:58:38.733Z,14.89
2022-10-14T09:01:30.973Z,15.12
2022-10-14T09:04:11.403Z,15.51
2022-10-14T09:06:47.371Z,15.89
2022-10-14T09:09:31.387Z,16.26
2022-10-14T09:12:06.062Z,16.55
2022-10-14T09:14:40.707Z,16.82
2022-10-14T09:17:22.310Z,16.98
2022-10-14T09:19:59.430Z,17.14
2022-10-14T09:22:31.709Z,17.69
2022-10-14T09:25:04.560Z,18.17
2022-10-14T09:27:39.009Z,18.28
2022-10-14T09:30:14.715Z,18.18
2022-10-14T09:32:51.388Z,18.01
2022-10-14T09:35:42.149Z,17.92
2022-10-14T09:38:14.431Z,17.97
2022-10-14T09:40:52.111Z,18.24
2022-10-14T09:43:26.218Z,18.55
2022-10-14T09:46:05.765Z,18.99
2022-10-14T09:48:47.088Z,19.58
2022-10-14T09:51:30.855Z,20.18
2022-10-14T09:54:05.664Z,20.64
2022-10-14T09:56:41.948Z,21.00
2022-10-14T09:59:23.234Z,21.28
2022-10-14T10:02:04.011Z,21.54
2022-10-14T10:04:45.471Z,21.73
2022-10-14T10:07:34.459Z,21.93
2022-10-14T10:10:24.011Z,22.10
2022-10-14T10:12:57.161Z,22.35
2022-10-14T10:15:30.344Z,22.49
2022-10-14T10:18:05.319Z,22.71
2022-10-14T10:20:37.588Z,22.79
2022-10-14T10:23:25.950Z,22.79
2022-10-14T10:26:11.219Z,22.57
2022-10-14T10:28:47.894Z,22.39
2022-10-14T10:31:24.986Z,22.21
2022-10-14T10:34:12.732Z,22.05
2022-10-14T10:36:48.287Z,22.23
2022-10-14T10:39:26.885Z,22.76
2022-10-14T10:42:05.185Z,22.96
2022-10-14T10:44:59.372Z,23.15
2022-10-14T10:47:45.417Z,23.12
2022-10-14T10:50:20.540Z,22.87
2022-10-14T10:53:04.438Z,22.82
2022-10-14T10:55:59.347Z,22.63
2022-10-14T10:58:42.482Z,22.41
2022-10-14T11:01:36.893Z,21.98
2022-10-14T11:04:23.971Z,21.38
2022-10-14T11:07:24.030Z,20.81
2022-10-14T11:10:32.434Z,20.66
2022-10-14T11:13:34.404Z,20.34
2022-10-14T11:16:09.756Z,19.79
2022-10-14T11:18:48.381Z,19.39
2022-10-14T11:21:42.779Z,19.16
2022-10-14T11:24:23.445Z,18.91
2022-10-14T11:27:10.313Z,18.63
2022-10-14T11:29:46.642Z,18.57
2022-10-14T11:32:40.784Z,18.72
2022-10-14T11:41:35.900Z,18.59
2022-10-14T11:44:28.609Z,18.40
2022-10-14T11:47:04.251Z,17.94
2022-10-14T11:50:02.867Z,17.58
2022-10-14T11:52:40.954Z,17.28
2022-10-14T11:55:18.412Z,17.04
2022-10-14T11:57:53.820Z,16.84
2022-10-14T12:00:52.031Z,16.63
2022-10-14T12:03:27.238Z,16.40
2022-10-14T12:06:18.024Z,16.18
2022-10-14T12:08:53.313Z,16.07
2022-10-14T12:11:41.622Z,15.92
2022-10-14T12:14:25.945Z,15.81
2022-10-14T12:16:59.111Z,15.72
2022-10-14T12:19:30.923Z,15.62
2022-10-14T12:22:16.134Z,15.53
2022-10-14T12:24:48.007Z,15.44
2022-10-14T12:27:20.201Z,15.37
2022-10-14T12:29:55.957Z,15.34
2022-10-14T12:32:29.165Z,15.28
2022-10-14T12:35:02.102Z,15.22
2022-10-14T12:37:38.231Z,15.15
2022-10-14T12:40:20.825Z,15.14
2022-10-14T12:43:05.356Z,15.10
2022-10-14T12:45:37.488Z,15.07
2022-10-14T12:48:27.547Z,15.05
2022-10-14T12:51:02.490Z,15.03
2022-10-14T12:53:34.599Z,15.00
2022-10-14T12:56:08.242Z,14.96
2022-10-14T12:58:42.465Z,14.94
2022-10-14T13:01:22.851Z,14.90
2022-10-14T13:04:03.949Z,14.87
2022-10-14T13:07:35.462Z,14.83
2022-10-14T13:09:50.031Z,14.79
2022-10-14T13:12:25.626Z,14.77
2022-10-14T13:15:01.979Z,14.74
2022-10-14T13:17:45.889Z,14.71
2022-10-14T13:20:39.925Z,14.65
2022-10-14T13:23:33.813Z,14.59
2022-10-14T13:26:33.189Z,14.52
2022-10-14T13:29:29.619Z,14.47
2022-10-14T13:32:12.364Z,14.39
2022-10-14T13:35:30.896Z,14.31
2022-10-14T13:38:07.788Z,14.23
2022-10-14T13:40:45.159Z,14.15
2022-10-14T13:43:29.552Z,14.08
2022-10-14T13:46:08.911Z,14.00
2022-10-14T13:48:46.498Z,13.94
2022-10-14T13:51:42.892Z,13.89
2022-10-14T13:54:12.593Z,13.84
2022-10-14T13:56:44.284Z,13.79
2022-10-14T13:59:39.952Z,13.74
2022-10-14T14:01:58.749Z,13.70
2022-10-14T14:04:34.937Z,13.64
2022-10-14T14:07:38.165Z,13.61
2022-10-14T14:09:41.072Z,13.55
2022-10-14T14:12:14.185Z,13.51
2022-10-14T14:14:46.561Z,13.46
2022-10-14T14:17:25.508Z,13.40
2022-10-14T14:19:59.926Z,13.37
2022-10-14T14:22:32.523Z,13.32
2022-10-14T14:25:33.384Z,13.30
2022-10-14T14:27:57.448Z,13.26
2022-10-14T14:30:34.841Z,13.21
2022-10-14T14:33:15.412Z,13.19
2022-10-14T14:35:57.564Z,13.13
2022-10-14T14:38:35.744Z,13.09
2022-10-14T14:41:22.515Z,13.04
2022-10-14T14:44:24.085Z,12.97
2022-10-14T14:46:37.465Z,12.92
2022-10-14T14:49:11.517Z,12.87
2022-10-14T14:51:43.439Z,12.83
2022-10-14T14:54:20.367Z,12.77
2022-10-14T14:56:58.510Z,12.74
2022-10-14T14:59:38.345Z,12.69
2022-10-14T15:02:16.345Z,12.65
2022-10-14T15:05:02.036Z,12.60
2022-10-14T15:07:33.941Z,12.57
2022-10-14T15:10:08.014Z,12.51
2022-10-14T15:12:42.181Z,12.48
2022-10-14T15:15:47.175Z,12.42
2022-10-14T15:18:39.980Z,12.35
2022-10-14T15:21:16.367Z,12.25
2022-10-14T15:23:55.655Z,12.16
2022-10-14T15:26:35.191Z,12.10
2022-10-14T15:29:13.957Z,12.04
2022-10-14T15:31:51.523Z,12.01
2022-10-14T15:34:23.716Z,11.98
2022-10-14T15:36:56.476Z,11.93
2022-10-14T15:39:28.640Z,11.89
2022-10-14T15:42:01.687Z,11.87
2022-10-14T15:44:35.805Z,11.84
2022-10-14T15:47:22.578Z,11.83
2022-10-14T15:49:55.171Z,11.82
2022-10-14T15:52:28.187Z,11.80
2022-10-14T15:55:00.277Z,11.79
2022-10-14T15:57:32.289Z,11.72
2022-10-14T16:00:04.523Z,11.66
2022-10-14T16:02:40.196Z,11.59
2022-10-14T16:05:19.888Z,11.57
2022-10-14T16:07:48.490Z,11.56
2022-10-14T16:10:21.504Z,11.57
2022-10-14T16:12:53.701Z,11.52
2022-10-14T16:15:47.997Z,11.48
2022-10-14T16:18:23.839Z,11.45
2022-10-14T16:20:57.924Z,11.43
2022-10-14T16:23:33.317Z,11.42
2022-10-14T16:26:04.715Z,11.42
2022-10-14T16:28:37.237Z,11.38
2022-10-14T16:31:13.470Z,11.38
2022-10-14T16:33:46.204Z,11.36
2022-10-14T16:36:19.882Z,11.32
2022-10-14T16:38:52.155Z,11.31
2022-10-14T16:41:24.380Z,11.30
2022-10-14T16:43:56.922Z,11.29
2022-10-14T16:46:46.975Z,11.27
2022-10-14T16:49:19.719Z,11.26
2022-10-14T16:51:53.090Z,11.22
2022-10-14T16:54:24.892Z,11.20
2022-10-14T16:56:56.980Z,11.19
2022-10-14T16:59:29.089Z,11.20
2022-10-14T17:02:02.699Z,11.17
2022-10-14T17:04:35.045Z,11.15
2022-10-14T17:07:09.796Z,11.11
2022-10-14T17:09:42.053Z,11.08
2022-10-14T17:12:15.062Z,11.04
2022-10-14T17:14:46.779Z,11.04
2022-10-14T17:17:18.668Z,11.05
2022-10-14T17:19:52.896Z,11.06
2022-10-14T17:22:25.670Z,11.05
2022-10-14T17:24:57.596Z,11.01
2022-10-14T17:27:30.978Z,10.97
2022-10-14T17:30:02.962Z,10.95
2022-10-14T17:32:35.210Z,10.92
2022-10-14T17:35:12.814Z,10.89
2022-10-14T17:37:45.321Z,10.87
2022-10-14T17:40:18.276Z,10.85
2022-10-14T17:42:51.084Z,10.75
2022-10-14T17:45:22.958Z,10.63
2022-10-14T17:47:56.360Z,10.51
2022-10-14T17:50:28.772Z,10.42
2022-10-14T17:53:01.732Z,10.34
2022-10-14T17:55:38.207Z,10.27
2022-10-14T17:58:10.009Z,10.23
2022-10-14T18:00:42.743Z,10.21
2022-10-14T18:03:14.511Z,10.21
2022-10-14T18:05:48.895Z,10.20
2022-10-14T18:08:20.557Z,10.20
2022-10-14T18:10:52.302Z,10.24
2022-10-14T18:13:23.954Z,10.26
2022-10-14T18:15:56.827Z,10.24
2022-10-14T18:18:28.640Z,10.22
2022-10-14T18:21:04.559Z,10.19
2022-10-14T18:23:39.132Z,10.12
2022-10-14T18:26:16.546Z,10.05
2022-10-14T18:28:50.868Z,10.03
2022-10-14T18:31:25.831Z,10.02
2022-10-14T18:33:58.565Z,10.00
2022-10-14T18:36:33.253Z,9.99
2022-10-14T18:39:08.214Z,9.97
2022-10-14T18:41:41.803Z,9.95
2022-10-14T18:44:13.681Z,9.89
2022-10-14T18:46:47.662Z,9.87
2022-10-14T18:49:19.458Z,9.82
2022-10-14T18:51:51.918Z,9.80
2022-10-14T18:54:29.351Z,9.75
2022-10-14T18:57:01.201Z,9.75
2022-10-14T18:59:35.765Z,9.71
2022-10-14T19:02:11.313Z,9.68
2022-10-14T19:04:44.961Z,9.66
2022-10-14T19:07:17.217Z,9.64
2022-10-14T19:09:50.977Z,9.61
2022-10-14T19:12:42.212Z,9.56
2022-10-14T19:15:14.074Z,9.52
2022-10-14T19:17:48.619Z,9.49
2022-10-14T19:20:21.396Z,9.49
2022-10-14T19:22:56.642Z,9.45
2022-10-14T19:25:27.110Z,9.42
2022-10-14T19:28:00.489Z,9.42
2022-10-14T19:30:32.498Z,9.41
2022-10-14T19:33:04.874Z,9.40
2022-10-14T19:35:37.100Z,9.37
2022-10-14T19:38:11.355Z,9.34
2022-10-14T19:40:43.347Z,9.32
2022-10-14T19:43:14.971Z,9.33
2022-10-14T19:45:50.269Z,9.33
2022-10-14T19:48:22.019Z,9.34
2022-10-14T19:50:54.366Z,9.35
2022-10-14T19:53:26.033Z,9.34
2022-10-14T19:56:10.649Z,9.33
2022-10-14T19:58:44.865Z,9.33
2022-10-14T20:01:18.134Z,9.29
2022-10-14T20:03:50.694Z,9.30
2022-10-14T20:06:22.441Z,9.32
2022-10-14T20:08:55.374Z,9.31
2022-10-14T20:11:27.138Z,9.28
2022-10-14T20:13:59.971Z,9.26
2022-10-14T20:16:32.327Z,9.23
2022-10-14T20:19:05.968Z,9.21
2022-10-14T20:21:38.117Z,9.20
2022-10-14T20:24:09.875Z,9.17
2022-10-14T20:26:41.593Z,9.16
2022-10-14T20:29:14.209Z,9.14
2022-10-14T20:31:46.682Z,9.12
2022-10-14T20:34:18.522Z,9.07
2022-10-14T20:36:50.561Z,9.08
2022-10-14T20:39:23.290Z,9.11
2022-10-14T20:41:56.404Z,9.11
2022-10-14T20:44:28.373Z,9.09
2022-10-14T20:47:05.976Z,9.09
2022-10-14T20:49:38.275Z,9.06
2022-10-14T20:52:09.970Z,9.00
2022-10-14T20:54:42.514Z,8.95
2022-10-14T20:57:14.336Z,8.93
2022-10-14T20:59:46.302Z,8.91
2022-10-14T21:02:21.719Z,8.89
2022-10-14T21:04:53.546Z,8.85
2022-10-14T21:07:25.538Z,8.82
2022-10-14T21:09:57.517Z,8.78
2022-10-14T21:12:29.906Z,8.77
2022-10-14T21:15:02.361Z,8.74
2022-10-14T21:17:34.080Z,8.71
2022-10-14T21:20:06.587Z,8.69
2022-10-14T21:22:39.507Z,8.68
2022-10-14T21:25:11.472Z,8.66
2022-10-14T21:27:43.255Z,8.62
2022-10-14T21:30:15.287Z,8.60
2022-10-14T21:32:47.084Z,8.59
2022-10-14T21:35:18.799Z,8.57
2022-10-14T21:37:53.251Z,8.55
2022-10-14T21:40:25.416Z,8.52
2022-10-14T21:42:57.050Z,8.53
2022-10-14T21:45:28.806Z,8.51
2022-10-14T21:48:00.513Z,8.49
2022-10-14T21:50:32.505Z,8.45
2022-10-14T21:53:04.768Z,8.42
2022-10-14T21:55:36.406Z,8.39
2022-10-14T21:58:08.419Z,8.41
2022-10-14T22:00:42.263Z,8.40
2022-10-14T22:03:14.533Z,8.43
2022-10-14T22:05:47.990Z,8.45
2022-10-14T22:08:22.475Z,8.47
2022-10-14T22:10:54.218Z,8.45
2022-10-14T22:13:26.248Z,8.47
2022-10-14T22:15:57.944Z,8.48
2022-10-14T22:18:29.985Z,8.48
2022-10-14T22:21:07.053Z,8.49
2022-10-14T22:23:41.545Z,8.50
2022-10-14T22:26:14.603Z,8.51
2022-10-14T22:28:46.472Z,8.51
2022-10-14T22:31:20.174Z,8.51
2022-10-14T22:33:51.880Z,8.48
2022-10-14T22:36:28.196Z,8.45
2022-10-14T22:39:00.968Z,8.44
2022-10-14T22:41:35.651Z,8.42
2022-10-14T22:44:08.460Z,8.41
2022-10-14T22:46:40.958Z,8.41
2022-10-14T22:49:14.259Z,8.40
2022-10-14T22:51:47.422Z,8.38
2022-10-14T22:54:19.078Z,8.37
2022-10-14T22:56:50.906Z,8.37
2022-10-14T22:59:23.040Z,8.40
2022-10-14T23:01:55.265Z,8.42
2022-10-14T23:04:27.120Z,8.42
2022-10-14T23:07:04.404Z,8.40
2022-10-14T23:09:36.546Z,8.36
2022-10-14T23:12:07.691Z,8.32
2022-10-14T23:14:39.655Z,8.29
2022-10-14T23:17:11.958Z,8.25
2022-10-14T23:19:43.666Z,8.22
2022-10-14T23:22:16.570Z,8.21
2022-10-14T23:24:48.635Z,8.18
2022-10-14T23:27:20.977Z,8.17
2022-10-14T23:29:52.890Z,8.16
2022-10-14T23:32:25.283Z,8.16
2022-10-14T23:34:57.241Z,8.17
2022-10-14T23:37:28.945Z,8.19
2022-10-14T23:40:01.792Z,8.21
2022-10-14T23:42:34.230Z,8.22
2022-10-14T23:45:08.057Z,8.25
2022-10-14T23:47:40.091Z,8.29
2022-10-14T23:50:11.822Z,8.33
2022-10-14T23:52:45.890Z,8.39
2022-10-14T23:55:18.008Z,8.43
2022-10-14T23:57:49.790Z,8.49
